Osage, Wyoming
Current Conditions -  °F | °C
As of 1:15 AM on Monday 22 Dec 2014 (Local Time) from KECS Reporting Station
Light Snow Light Snow  
Wind Chill: 19°   Ceiling: 900
Heat Index: 32°   Visibility: 4mi
Dew Point: 32°   Wind: 23mph
Humidity: 100%   Direction: 320°NW
Pressure: 29.6"   Gusts: 32mph
Location:  43.98°N, 104.42°W
Report Text: KECS 220815Z AUTO 32020G28KT 4SM -SN BKN009 OVC013 00/00 A2960 RMK AO2
Loading
Personal Weather Stations






























Interactive Weather Map New forecast layout! Learn more

10-Day Weather Forecast

Advertisements
Track Severe Weather on mobile